• Join FlightAware (Why Join?)
  • Login
  • US Flag 
09:07PM EDT


 

Airport Tracker/Info


-or-


 

Live Flight TrackerFlight Track Log ✈ EJM585 ✈ 27-Jun-2013 ✈ KIAD - TXKF / BDA

Flight Track Log - Related Links

Times and Time Zones

All times are in EDT time to prevent confusion due to time zone crossing. See the EJM585 flight status page for this flight to view local times or setup timezone preferences in your user account.

Time Position Orientation Groundspeed Altitude Reporting Facility
EDT Latitude Longitude Course Direction KTS MPH feet Rate Location/Type
03:08PM 38.9167 -77.4833 311° West 219 252 3,000  Level Potomac TRACON
03:09PM 38.9500 -77.5333 311° West 261 300 4,600 1,740 Climbing Potomac TRACON
03:10PM 39.0167 -77.5833 330° Northwest 271 312 6,400 2,100 Climbing Potomac TRACON
03:11PM 39.0833 -77.5833 360° North 308 354 8,900 1,260 Climbing Potomac TRACON
03:12PM 39.1500 -77.5167 38° Northeast 306 352 9,000  Climbing Potomac TRACON
03:13PM 39.2167 -77.4500 38° Northeast 305 351 9,000  Level Potomac TRACON
03:14PM 39.2500 -77.3333 70° East 300 345 9,000 1,380 Level Potomac TRACON
03:19PM 39.2109 -76.7761 70° East 351 404 18,100 1,740 Climbing FlightAware ADS-B
03:20PM 39.1964 -76.7142 107° East 357 411 19,400 2,520 Climbing FlightAware ADS-B
03:20PM 39.1828 -76.6558 107° East 362 417 20,600 2,460 Climbing FlightAware ADS-B
03:20PM 39.1795 -76.6283 99° East 368 423 21,100 2,100 Climbing FlightAware ADS-B
03:21PM 39.1804 -76.5942 88° East 377 434 21,600 1,680 Climbing FlightAware ADS-B
03:21PM 39.1842 -76.5328 85° East 396 456 22,300 1,200 Climbing FlightAware ADS-B
03:22PM 39.1879 -76.4437 87° East 426 490 22,900 600 Climbing FlightAware ADS-B
03:22PM 39.1914 -76.3644 87° East 452 520 23,000 60 Climbing FlightAware ADS-B
03:23PM 39.1935 -76.2808 88° East 454 522 23,000  Level FlightAware ADS-B
03:23PM 39.1926 -76.2038 91° East 451 519 23,000  Level FlightAware ADS-B
03:24PM 39.1879 -76.1172 94° East 469 540 23,000  Level FlightAware ADS-B
03:24PM 39.1824 -76.0309 95° East 475 547 23,000  Level FlightAware ADS-B
03:25PM 39.1767 -75.9429 95° East 478 550 23,000  Level FlightAware ADS-B
03:25PM 39.1710 -75.8574 95° East 478 550 23,000  Level FlightAware ADS-B
03:26PM 39.1646 -75.7611 95° East 474 545 23,000  Level FlightAware ADS-B
03:27PM 39.1577 -75.6599 95° East 471 542 23,000  Level FlightAware ADS-B
03:27PM 39.1518 -75.5739 95° East 472 543 23,000  Level FlightAware ADS-B
03:28PM 39.1459 -75.4883 95° East 473 544 23,000  Level FlightAware ADS-B
03:28PM 39.1397 -75.4001 95° East 474 545 23,000  Level FlightAware ADS-B
03:29PM 39.1333 -75.3093 95° East 474 545 23,000  Level FlightAware ADS-B
03:29PM 39.1265 -75.2150 95° East 479 551 23,000  Level FlightAware ADS-B
03:30PM 39.1198 -75.1237 95° East 479 551 23,000 240 Level FlightAware ADS-B
03:30PM 39.1133 -75.0339 95° East 477 549 23,300 1,320 Climbing FlightAware ADS-B
03:31PM 39.1048 -74.9220 96° East 482 555 24,600 1,980 Climbing FlightAware ADS-B
03:31PM 39.0978 -74.8678 99° East 483 556 25,300 2,100 Climbing FlightAware ADS-B
03:32PM 39.0817 -74.7951 106° East 481 554 26,200 1,920 Climbing FlightAware ADS-B
03:32PM 39.0707 -74.7595 112° Southeast 481 554 26,600 1,800 Climbing FlightAware ADS-B
03:32PM 39.0549 -74.7179 116° Southeast 480 552 27,100 1,920 Climbing FlightAware ADS-B
03:32PM 39.0414 -74.6878 120° Southeast 480 552 27,500 1,920 Climbing FlightAware ADS-B
03:33PM 39.0049 -74.6135 122° Southeast 483 556 28,500 1,680 Climbing FlightAware ADS-B
03:33PM 38.9664 -74.5352 122° Southeast 490 564 29,300 1,500 Climbing FlightAware ADS-B
03:34PM 38.9275 -74.4564 122° Southeast 498 573 30,100 1,320 Climbing FlightAware ADS-B
03:34PM 38.8895 -74.3795 122° Southeast 508 585 30,700 840 Climbing FlightAware ADS-B
03:35PM 38.8506 -74.3011 122° Southeast 514 592 31,000 240 Climbing FlightAware ADS-B
03:35PM 38.8086 -74.2163 122° Southeast 515 593 31,000  Level FlightAware ADS-B
03:36PM 38.7699 -74.1384 122° Southeast 512 589 31,000  Level FlightAware ADS-B
03:36PM 38.7308 -74.0599 123° Southeast 511 588 31,000  Level FlightAware ADS-B
03:37PM 38.6889 -73.9758 123° Southeast 512 589 31,000  Level FlightAware ADS-B
03:38PM 38.6300 -73.8585 123° Southeast 514 592 31,000  Level FlightAware ADS-B
03:38PM 38.5891 -73.7770 123° Southeast 511 588 31,000  Level FlightAware ADS-B
03:39PM 38.5507 -73.7008 123° Southeast 507 583 31,000  Level FlightAware ADS-B
03:39PM 38.5121 -73.6243 123° Southeast 508 585 31,000  Level FlightAware ADS-B
03:40PM 38.4709 -73.5456 124° Southeast 509 586 31,000  Level FlightAware ADS-B
03:41PM 38.4095 -73.4264 123° Southeast 511 588 31,000  Level FlightAware ADS-B
03:41PM 38.3714 -73.3506 123° Southeast 508 585 31,000 60 Level FlightAware ADS-B
03:42PM 38.3315 -73.2714 123° Southeast 507 583 31,100 240 Climbing FlightAware ADS-B
03:42PM 38.2924 -73.1941 123° Southeast 509 586 31,300 420 Climbing FlightAware ADS-B
03:43PM 38.2495 -73.1093 123° Southeast 509 586 31,600 420 Climbing FlightAware ADS-B
03:44PM 38.1709 -72.9548 123° Southeast 504 580 32,000 180 Climbing FlightAware ADS-B
03:45PM 38.1127 -72.8423 123° Southeast 486 559 32,000  Level FlightAware ADS-B
03:47PM 37.9502 -72.5268 123° Southeast 490 564 32,000  Level FlightAware ADS-B
03:48PM 37.8781 -72.3958 123° Southeast 488 562 32,000  Level New York Center
03:49PM 37.8047 -72.2681 126° Southeast 481 554 32,000  Level New York Center
03:50PM 37.7336 -72.1142 120° Southeast 481 554 32,000  Level New York Center
03:51PM 37.6622 -71.9606 120° Southeast 493 567 32,000  Level New York Center
03:52PM 37.6200 -71.8053 109° East 493 567 32,000  Level New York Center
03:53PM 37.5483 -71.6575 121° Southeast 481 554 32,000  Level New York Center
03:54PM 37.4911 -71.5050 115° Southeast 491 565 32,000  Level New York Center
03:55PM 37.4147 -71.3603 124° Southeast 491 565 32,000  Level New York Center
03:57PM 37.2972 -71.1810 129° Southeast  Level FlightAware Approximate
03:57PM 37.4833 -71.4500 129° Southeast 438 504 32,000  Level New York Oceanic (ODAPS)
04:04PM 36.6352 -70.1480 130° Southeast 438 504 32,000  Level FlightAware Transoceanic
04:05PM 36.5574 -70.0311 130° Southeast 438 504 32,000  Level FlightAware Transoceanic
04:06PM 36.4795 -69.9144 130° Southeast 438 504 32,000  Level FlightAware Transoceanic
04:07PM 36.4014 -69.7980 130° Southeast 438 504 32,000  Level FlightAware Transoceanic
04:08PM 36.3233 -69.6817 130° Southeast 438 504 32,000  Level FlightAware Transoceanic
04:09PM 36.2450 -69.5658 130° Southeast 438 504 32,000  Level FlightAware Transoceanic
04:10PM 36.1667 -69.4500 143° Southeast 438 504 32,000  Level FlightAware Transoceanic
04:10PM 36.1667 -69.4500 143° Southeast 456 525 32,000  Level New York Oceanic (ODAPS)
04:11PM 36.0604 -69.3494 143° Southeast 438 504 32,000  Level FlightAware Transoceanic
04:12PM 35.9540 -69.2490 143° Southeast 438 504 32,000  Level FlightAware Transoceanic
04:13PM 35.8475 -69.1490 143° Southeast 438 504 32,000  Level FlightAware Transoceanic
04:14PM 35.7410 -69.0492 143° Southeast 438 504 32,000  Level FlightAware Transoceanic
04:15PM 35.6344 -68.9497 143° Southeast 438 504 32,000  Level FlightAware Transoceanic
04:16PM 35.5277 -68.8504 143° Southeast 438 504 32,000  Level FlightAware Transoceanic
04:17PM 35.3568 -68.6921 143° Southeast 456 525 32,000  Level FlightAware Transoceanic
04:18PM 35.2552 -68.5984 143° Southeast 456 525 32,000  Level FlightAware Transoceanic
04:19PM 35.1536 -68.5050 143° Southeast 456 525 32,000  Level FlightAware Transoceanic
04:20PM 35.0519 -68.4118 143° Southeast 456 525 32,000  Level FlightAware Transoceanic
04:21PM 34.9501 -68.3188 143° Southeast 456 525 32,000  Level FlightAware Transoceanic
04:22PM 34.8482 -68.2261 143° Southeast 456 525 32,000  Level FlightAware Transoceanic
04:23PM 34.7463 -68.1336 143° Southeast 456 525 32,000  Level FlightAware Transoceanic
04:24PM 34.6443 -68.0413 143° Southeast 456 525 32,000  Level FlightAware Transoceanic
04:25PM 34.5423 -67.9493 143° Southeast 456 525 32,000  Level FlightAware Transoceanic
04:26PM 34.4401 -67.8575 143° Southeast 456 525 32,000  Level FlightAware Transoceanic
04:27PM 34.3379 -67.7659 144° Southeast 456 525 32,000  Level FlightAware Transoceanic
04:28PM 34.2357 -67.6745 144° Southeast 456 525 32,000 -780 Level FlightAware Transoceanic
04:28PM 34.1333 -67.5833 125° Southeast 426 490 31,000  Descending New York Oceanic (ODAPS)
04:29PM 34.1333 -67.5833 125° Southeast 456 525 32,000 540 Climbing FlightAware Transoceanic
04:30PM 34.0589 -67.4557 125° Southeast 456 525 32,000  Level FlightAware Transoceanic
04:31PM 33.9844 -67.3282 125° Southeast 456 525 32,000  Level FlightAware Transoceanic
04:32PM 33.9097 -67.2010 125° Southeast 456 525 32,000  Level FlightAware Transoceanic
04:33PM 33.8349 -67.0740 125° Southeast 456 525 32,000 -540 Level FlightAware Transoceanic
04:34PM 33.7258 -66.8897 125° Southeast 426 490 31,000 -540 Descending FlightAware Transoceanic
04:35PM 33.6576 -66.7747 126° Southeast 426 490 31,000  Level FlightAware Transoceanic
04:36PM 33.5892 -66.6599 126° Southeast 426 490 31,000  Level FlightAware Transoceanic
04:37PM 33.5206 -66.5453 126° Southeast 426 490 31,000  Level FlightAware Transoceanic
04:38PM 33.4520 -66.4309 126° Southeast 426 490 31,000 -840 Level FlightAware Transoceanic
04:39PM 33.3546 -66.3568 148° Southeast  Level FlightAware Approximate
04:40PM 33.3810 -66.3251 124° Southeast  Level FlightAware Approximate
04:41PM 33.3127 -66.2138 124° Southeast  Level FlightAware Approximate
04:42PM 33.2476 -66.0998 124° Southeast  Level FlightAware Approximate
04:42PM 34.1333 -67.5833 125° Southeast 426 490 26,000  Level New York Oceanic (ODAPS)
04:43PM 33.1814 -65.9868 127° Southeast  Level FlightAware Approximate
04:44PM 33.1113 -65.8747 127° Southeast  Level FlightAware Approximate
04:45PM 33.0411 -65.7628 127° Southeast  Level FlightAware Approximate
04:46PM 32.8554 -65.4628 126° Southeast 426 490 31,000  Level FlightAware Transoceanic
04:47PM 32.7834 -65.3468 126° Southeast 426 490 31,000 -8,160 Level FlightAware Transoceanic
04:47PM 34.1333 -67.5833 125° Southeast 426 490 18,500  Descending New York Oceanic (ODAPS)
04:48PM 32.7113 -65.2310 127° Southeast 426 490 31,000 5,100 Climbing FlightAware Transoceanic
04:49PM 32.6390 -65.1154 127° Southeast 426 490 26,000 -2,520 Descending FlightAware Transoceanic
04:50PM 32.5667 -65.0000 106° East 426 490 26,000 -8,460 Level FlightAware Transoceanic
04:50PM 34.1333 -67.5833 125° Southeast 426 490 12,200  Descending New York Oceanic (ODAPS)
04:51PM 32.5225 -64.8165 106° East 426 490 26,000  Climbing FlightAware Transoceanic
04:51PM 32.5667 -65.0000 106° East 347 399 12,200  Descending New York Oceanic (ODAPS)
04:52PM 32.4780 -64.6331 106° East 426 490 26,000 5,400 Climbing FlightAware Transoceanic
04:53PM 32.4669 -64.5873 106° East 426 490 18,500 -14,820 Descending FlightAware Transoceanic
04:53PM 32.5667 -65.0000 106° East 347 399 6,500 -8,220 Descending New York Oceanic (ODAPS)
04:54PM 32.3732 -64.6706 121° Southeast  Level Estimated
04:54PM 32.5667 -65.0000 106° East 110 127 6,500  Level New York Oceanic (ODAPS)
04:55PM 32.3640 -64.6787 131° Southeast  Level Estimated
04:55PM 32.5667 -65.0000 106° East 110 127 4,000  Level New York Oceanic (ODAPS)
04:56PM 33.7754 -66.9674 126° Southeast  Level FlightAware Approximate
04:57PM 33.7059 -66.8540 126° Southeast  Level FlightAware Approximate
04:58PM 32.3640 -64.6787 90° East  Level Estimated
04:59PM 32.3640 -64.6787 90° East  Level Estimated
05:00PM 32.4836 -64.6561 106° East 110 127 6,500  Level FlightAware Transoceanic
05:01PM 32.4753 -64.6217 106° East 110 127 6,500 -1,260 Level FlightAware Transoceanic
05:02PM 32.4669 -64.5873 106° East 110 127 4,000 -1,260 Descending FlightAware Transoceanic
05:03PM 32.4585 -64.5530 106° East 110 127 4,000 -900 Level FlightAware Transoceanic
05:03PM 32.5667 -65.0000 106° East 110 127 3,000  Descending New York Oceanic (ODAPS)
05:04PM 32.4501 -64.5187 106° East 110 127 4,000 540 Climbing FlightAware Transoceanic
05:05PM 32.4417 -64.4843 106° East 110 127 4,000  Level FlightAware Transoceanic
05:06PM 32.4333 -64.4500 154° Southeast 110 127 4,000  Level FlightAware Transoceanic
05:07PM 32.4042 -64.4333 154° Southeast 110 127 4,000  Level FlightAware Transoceanic
05:08PM 32.3750 -64.4166 154° Southeast 110 127 4,000 -540 Level FlightAware Transoceanic
05:09PM 32.3458 -64.4000 154° Southeast 110 127 3,000 -1,020 Descending FlightAware Transoceanic
05:10PM 32.3551 -64.5409 125° Southeast  Level Estimated
05:11PM 32.3640 -64.6787 125° Southeast  Level Estimated
05:12PM 32.3640 -64.6787 90° East  Level Estimated
05:13PM 32.3640 -64.6787 90° East  Level Estimated
05:14PM 32.3640 -64.6787 90° East  Level Estimated